createdAt,value
2018-05-27T00:02:01.061Z,69.50
2018-05-27T00:04:27.350Z,69.30
2018-05-27T00:06:53.636Z,69.40
2018-05-27T00:09:19.936Z,69.38
2018-05-27T00:11:46.224Z,69.38
2018-05-27T00:14:12.521Z,69.27
2018-05-27T00:16:38.813Z,68.89
2018-05-27T00:19:05.111Z,68.99
2018-05-27T00:21:31.401Z,68.88
2018-05-27T00:23:57.687Z,68.82
2018-05-27T00:26:23.980Z,68.77
2018-05-27T00:28:50.268Z,69.11
2018-05-27T00:31:16.556Z,69.46
2018-05-27T00:33:42.847Z,69.48
2018-05-27T00:36:09.131Z,69.85
2018-05-27T00:38:35.423Z,69.86
2018-05-27T00:41:01.762Z,70.08
2018-05-27T00:43:28.058Z,70.16
2018-05-27T00:45:54.349Z,70.39
2018-05-27T00:48:20.640Z,70.71
2018-05-27T00:50:46.932Z,70.77
2018-05-27T00:53:13.228Z,70.68
2018-05-27T00:55:39.522Z,70.70
2018-05-27T00:58:05.817Z,70.68
2018-05-27T01:00:32.110Z,70.85
2018-05-27T01:02:58.405Z,71.06
2018-05-27T01:05:24.700Z,71.06
2018-05-27T01:07:50.987Z,70.90
2018-05-27T01:10:17.283Z,71.04
2018-05-27T01:12:43.578Z,71.46
2018-05-27T01:15:09.903Z,71.78
2018-05-27T01:17:45.498Z,72.04
2018-05-27T01:20:11.787Z,72.44
2018-05-27T01:22:38.081Z,72.88
2018-05-27T01:25:04.367Z,73.41
2018-05-27T01:27:30.664Z,73.97
2018-05-27T01:29:56.953Z,74.22
2018-05-27T01:32:23.287Z,74.53
2018-05-27T01:34:49.615Z,74.65
2018-05-27T01:37:15.909Z,74.77
2018-05-27T01:39:42.201Z,74.71
2018-05-27T01:42:08.490Z,74.57
2018-05-27T01:44:34.779Z,74.80
2018-05-27T01:47:01.075Z,74.85
2018-05-27T01:49:27.363Z,74.97
2018-05-27T01:51:53.657Z,74.91
2018-05-27T01:54:19.951Z,75.09
2018-05-27T01:56:46.240Z,75.15
2018-05-27T01:59:12.539Z,75.06
2018-05-27T02:01:38.832Z,75.00
2018-05-27T02:04:05.121Z,74.98
2018-05-27T02:06:31.430Z,75.03
2018-05-27T02:08:57.730Z,74.57
2018-05-27T02:11:24.021Z,74.68
2018-05-27T02:13:50.316Z,74.36
2018-05-27T02:16:16.610Z,74.06
2018-05-27T02:18:42.898Z,73.65
2018-05-27T02:21:09.232Z,73.49
2018-05-27T02:23:35.522Z,73.37
2018-05-27T02:26:01.860Z,73.53
2018-05-27T02:28:28.197Z,73.72
2018-05-27T02:30:54.489Z,73.81
2018-05-27T02:33:20.820Z,73.90
2018-05-27T02:35:47.115Z,73.63
2018-05-27T02:38:13.443Z,73.56
2018-05-27T02:40:39.777Z,73.85
2018-05-27T02:43:06.071Z,74.24
2018-05-27T02:45:32.361Z,74.50
2018-05-27T02:47:58.643Z,74.43
2018-05-27T02:50:24.942Z,74.55
2018-05-27T02:52:51.234Z,74.56
2018-05-27T02:55:17.562Z,74.30
2018-05-27T02:57:43.885Z,74.20
2018-05-27T03:00:10.168Z,74.14
2018-05-27T03:02:36.457Z,74.35
2018-05-27T03:05:02.756Z,74.46
2018-05-27T03:07:29.044Z,74.00
2018-05-27T03:09:55.339Z,73.85
2018-05-27T03:12:21.643Z,73.98
2018-05-27T03:14:47.949Z,73.90
2018-05-27T03:17:14.269Z,74.28
2018-05-27T03:19:40.565Z,74.26
2018-05-27T03:22:06.869Z,74.21
2018-05-27T03:24:33.163Z,73.80
2018-05-27T03:26:59.499Z,73.65
2018-05-27T03:29:25.830Z,73.84
2018-05-27T03:31:52.117Z,73.76
2018-05-27T03:34:18.451Z,73.63
2018-05-27T03:36:44.743Z,73.43
2018-05-27T03:39:11.092Z,73.50
2018-05-27T03:41:37.387Z,73.46
2018-05-27T03:44:03.679Z,73.32
2018-05-27T03:46:29.973Z,73.29
2018-05-27T03:48:56.261Z,73.32
2018-05-27T03:51:22.560Z,73.22
2018-05-27T03:53:48.853Z,73.29
2018-05-27T03:56:15.147Z,73.19
2018-05-27T03:58:41.446Z,73.18
2018-05-27T04:01:07.744Z,73.06
2018-05-27T04:03:34.044Z,73.03
2018-05-27T04:06:00.334Z,72.79
2018-05-27T04:08:26.618Z,72.58
2018-05-27T04:10:52.906Z,72.56
2018-05-27T04:13:19.209Z,72.86
2018-05-27T04:15:45.503Z,72.83
2018-05-27T04:18:11.793Z,72.80
2018-05-27T04:20:38.087Z,72.54
2018-05-27T04:23:04.384Z,72.41
2018-05-27T04:25:30.679Z,72.44
2018-05-27T04:27:56.974Z,72.52
2018-05-27T04:30:23.259Z,72.22
2018-05-27T04:32:49.564Z,72.09
2018-05-27T04:35:15.846Z,71.79
2018-05-27T04:37:42.138Z,70.93
2018-05-27T04:40:08.434Z,70.60
2018-05-27T04:42:34.730Z,70.60
2018-05-27T04:45:01.059Z,70.68
2018-05-27T04:47:27.390Z,70.55
2018-05-27T04:49:53.725Z,69.88
2018-05-27T04:52:20.014Z,69.13
2018-05-27T04:54:46.304Z,68.59
2018-05-27T04:57:12.592Z,68.01
2018-05-27T04:59:38.933Z,67.51
2018-05-27T05:02:05.217Z,66.38
2018-05-27T05:04:31.514Z,65.36
2018-05-27T05:06:57.840Z,64.27
2018-05-27T05:09:24.186Z,62.86
2018-05-27T05:11:50.457Z,61.74
2018-05-27T05:14:16.753Z,61.43
2018-05-27T05:16:43.108Z,61.15
2018-05-27T05:19:09.408Z,60.88
2018-05-27T05:21:35.700Z,60.31
2018-05-27T05:24:01.999Z,61.30
2018-05-27T05:26:28.301Z,59.90
2018-05-27T05:28:54.593Z,58.56
2018-05-27T05:31:20.899Z,58.46
2018-05-27T05:33:47.215Z,58.05
2018-05-27T05:36:13.501Z,54.86
2018-05-27T05:38:39.818Z,54.87
2018-05-27T05:41:06.108Z,52.57
2018-05-27T05:43:32.452Z,50.47
2018-05-27T05:45:58.748Z,48.37
2018-05-27T05:48:25.048Z,45.83
2018-05-27T05:50:51.343Z,44.84
2018-05-27T05:53:17.633Z,45.41
2018-05-27T05:55:43.966Z,45.20
2018-05-27T05:58:10.261Z,44.73
2018-05-27T06:00:36.556Z,44.52
2018-05-27T06:03:02.849Z,44.22
2018-05-27T06:05:29.198Z,44.44
2018-05-27T06:07:55.483Z,45.96
2018-05-27T06:10:21.773Z,46.33
2018-05-27T06:12:48.084Z,45.63
2018-05-27T06:15:14.387Z,44.73
2018-05-27T06:17:40.671Z,44.60
2018-05-27T06:20:06.965Z,44.06
2018-05-27T06:22:33.263Z,44.44
2018-05-27T06:24:59.556Z,44.50
2018-05-27T06:27:25.851Z,43.38
2018-05-27T06:29:52.142Z,43.54
2018-05-27T06:32:18.438Z,43.45
2018-05-27T06:34:44.732Z,42.17
2018-05-27T06:37:11.027Z,43.28
2018-05-27T06:39:37.327Z,43.57
2018-05-27T06:42:03.624Z,43.62
2018-05-27T06:44:29.980Z,44.51
2018-05-27T06:46:56.269Z,44.29
2018-05-27T06:49:22.561Z,45.50
2018-05-27T06:51:48.932Z,45.79
2018-05-27T06:54:15.190Z,45.29
2018-05-27T06:56:41.491Z,45.01
2018-05-27T06:59:07.785Z,48.69
2018-05-27T07:01:34.077Z,52.38
2018-05-27T07:04:00.409Z,53.97
2018-05-27T07:06:26.740Z,55.00
2018-05-27T07:08:53.036Z,55.66
2018-05-27T07:11:19.398Z,54.07
2018-05-27T07:13:45.684Z,50.96
2018-05-27T07:16:11.983Z,47.29
2018-05-27T07:18:38.280Z,47.02
2018-05-27T07:21:04.615Z,46.17
2018-05-27T07:23:30.903Z,50.24
2018-05-27T07:25:57.237Z,50.77
2018-05-27T07:28:23.529Z,53.29
2018-05-27T07:30:49.876Z,52.75
2018-05-27T07:33:16.161Z,48.44
2018-05-27T07:35:42.457Z,46.91
2018-05-27T07:38:08.751Z,43.97
2018-05-27T07:40:35.044Z,44.36
2018-05-27T07:43:01.329Z,46.70
2018-05-27T07:45:27.665Z,47.62
2018-05-27T07:47:53.955Z,49.90
2018-05-27T07:50:20.246Z,51.68
2018-05-27T07:52:46.536Z,52.65
2018-05-27T07:55:12.825Z,50.13
2018-05-27T07:57:39.122Z,46.31
2018-05-27T08:00:05.456Z,43.46
2018-05-27T08:02:31.747Z,42.34
2018-05-27T08:04:58.049Z,42.87
2018-05-27T08:07:24.384Z,41.66
2018-05-27T08:09:50.678Z,39.74
2018-05-27T08:12:16.969Z,39.85
2018-05-27T08:14:43.276Z,38.82
2018-05-27T08:17:09.574Z,38.30
2018-05-27T08:19:35.868Z,39.34
2018-05-27T08:22:02.169Z,38.51
2018-05-27T08:24:28.451Z,38.77
2018-05-27T08:26:54.749Z,38.48
2018-05-27T08:29:21.042Z,38.89
2018-05-27T08:31:47.332Z,37.14
2018-05-27T08:34:13.650Z,38.11
2018-05-27T08:36:39.931Z,38.10
2018-05-27T08:39:06.225Z,38.05
2018-05-27T08:41:32.518Z,37.10
2018-05-27T08:43:58.813Z,37.86
2018-05-27T08:46:25.113Z,37.74
2018-05-27T08:48:51.445Z,39.77
2018-05-27T08:51:17.707Z,38.20
2018-05-27T08:53:44.001Z,37.27
2018-05-27T08:56:10.304Z,36.72
2018-05-27T08:58:36.608Z,37.08
2018-05-27T09:01:02.891Z,35.57
2018-05-27T09:03:29.188Z,36.46
2018-05-27T09:05:55.529Z,35.87
2018-05-27T09:08:21.823Z,35.90
2018-05-27T09:10:48.128Z,36.78
2018-05-27T09:13:14.423Z,37.57
2018-05-27T09:15:40.718Z,36.51
2018-05-27T09:18:07.013Z,36.55
2018-05-27T09:20:33.358Z,36.09
2018-05-27T09:22:59.657Z,34.90
2018-05-27T09:25:25.945Z,34.54
2018-05-27T09:27:52.241Z,37.16
2018-05-27T09:30:18.541Z,37.51
2018-05-27T09:32:44.838Z,38.91
2018-05-27T09:35:11.134Z,40.57
2018-05-27T09:37:37.432Z,40.14
2018-05-27T09:40:03.728Z,40.97
2018-05-27T09:42:30.019Z,42.17
2018-05-27T09:44:56.325Z,41.08
2018-05-27T09:47:22.648Z,40.23
2018-05-27T09:49:49.047Z,40.48
2018-05-27T09:52:15.355Z,40.08
2018-05-27T09:54:41.654Z,38.93
2018-05-27T09:57:07.945Z,37.36
2018-05-27T09:59:34.234Z,37.38
2018-05-27T10:02:00.523Z,36.81
2018-05-27T10:04:26.822Z,38.37
2018-05-27T10:06:53.106Z,40.14
2018-05-27T10:09:19.391Z,40.18
2018-05-27T10:11:45.690Z,39.10
2018-05-27T10:14:12.000Z,40.31
2018-05-27T10:16:38.284Z,40.32
2018-05-27T10:19:04.649Z,39.35
2018-05-27T10:21:30.869Z,39.52
2018-05-27T10:23:57.175Z,40.99
2018-05-27T10:26:23.512Z,42.97
2018-05-27T10:28:49.837Z,44.54
2018-05-27T10:31:16.124Z,42.02
2018-05-27T10:33:42.428Z,41.15
2018-05-27T10:36:08.705Z,40.65
2018-05-27T10:38:35.037Z,39.21
2018-05-27T10:41:01.368Z,38.57
2018-05-27T10:43:27.664Z,39.41
2018-05-27T10:45:53.996Z,39.79
2018-05-27T10:48:20.290Z,38.63
2018-05-27T10:50:46.587Z,39.01
2018-05-27T10:53:12.887Z,39.28
2018-05-27T10:55:39.199Z,40.29
2018-05-27T10:58:05.476Z,41.81
2018-05-27T11:00:31.809Z,41.03
2018-05-27T11:02:58.158Z,39.99
2018-05-27T11:05:24.479Z,41.44
2018-05-27T11:07:50.800Z,42.15
2018-05-27T11:10:17.089Z,41.54
2018-05-27T11:12:43.387Z,41.83
2018-05-27T11:15:09.668Z,42.85
2018-05-27T11:17:35.992Z,43.91
2018-05-27T11:20:02.282Z,43.40
2018-05-27T11:22:28.566Z,41.03
2018-05-27T11:24:54.857Z,39.53
2018-05-27T11:27:21.151Z,38.50
2018-05-27T11:29:47.451Z,39.65
2018-05-27T11:32:13.746Z,39.50
2018-05-27T11:34:40.036Z,40.54
2018-05-27T11:37:06.362Z,39.86
2018-05-27T11:39:32.622Z,40.79
2018-05-27T11:41:58.916Z,40.54
2018-05-27T11:44:25.205Z,39.96
2018-05-27T11:46:51.497Z,39.86
2018-05-27T11:49:17.788Z,38.32
2018-05-27T11:51:44.075Z,37.47
2018-05-27T11:54:10.447Z,38.98
2018-05-27T11:56:36.674Z,39.58
2018-05-27T11:59:02.976Z,39.48
2018-05-27T12:01:29.275Z,39.20
2018-05-27T12:03:55.560Z,40.93
2018-05-27T12:06:21.853Z,41.45
2018-05-27T12:08:48.180Z,40.95
2018-05-27T12:11:14.471Z,42.38
2018-05-27T12:13:40.763Z,42.92
2018-05-27T12:16:07.057Z,43.71
2018-05-27T12:18:33.357Z,44.10
2018-05-27T12:20:59.648Z,43.39
2018-05-27T12:23:25.943Z,43.84
2018-05-27T12:25:52.259Z,43.43
2018-05-27T12:28:18.573Z,43.13
2018-05-27T12:30:44.904Z,42.16
2018-05-27T12:33:11.250Z,41.73
2018-05-27T12:35:37.553Z,40.92
2018-05-27T12:38:03.843Z,41.79
2018-05-27T12:40:30.137Z,41.54
2018-05-27T12:42:56.440Z,40.46
2018-05-27T12:45:22.737Z,39.73
2018-05-27T12:47:49.033Z,38.51
2018-05-27T12:50:15.328Z,37.04
2018-05-27T12:52:41.618Z,35.25
2018-05-27T12:55:07.915Z,39.50
2018-05-27T12:57:34.233Z,41.08
2018-05-27T13:00:00.561Z,40.24
2018-05-27T13:02:26.812Z,37.18
2018-05-27T13:04:53.115Z,35.77
2018-05-27T13:07:19.406Z,39.88
2018-05-27T13:09:45.728Z,41.82
2018-05-27T13:12:12.027Z,41.10
2018-05-27T13:14:38.316Z,36.60
2018-05-27T13:17:04.609Z,34.44
2018-05-27T13:19:30.905Z,32.01
2018-05-27T13:21:57.199Z,33.32
2018-05-27T13:24:23.499Z,34.22
2018-05-27T13:26:49.786Z,35.97
2018-05-27T13:29:16.139Z,36.72
2018-05-27T13:31:42.428Z,38.66
2018-05-27T13:34:08.724Z,40.07
2018-05-27T13:36:35.064Z,41.70
2018-05-27T13:39:01.352Z,42.46
2018-05-27T13:41:27.641Z,42.02
2018-05-27T13:43:53.935Z,41.37
2018-05-27T13:46:20.231Z,42.50
2018-05-27T13:48:46.524Z,43.82
2018-05-27T13:51:12.813Z,43.94
2018-05-27T13:53:39.108Z,43.24
2018-05-27T13:56:05.395Z,43.70
2018-05-27T13:58:31.683Z,43.74
2018-05-27T14:00:58.040Z,43.09
2018-05-27T14:03:24.413Z,43.37
2018-05-27T14:05:50.625Z,42.72
2018-05-27T14:08:16.916Z,43.82
2018-05-27T14:10:43.231Z,43.90
2018-05-27T14:13:09.516Z,43.08
2018-05-27T14:15:35.851Z,43.02
2018-05-27T14:18:02.140Z,43.16
2018-05-27T14:20:28.436Z,42.66
2018-05-27T14:22:54.724Z,43.24
2018-05-27T14:25:21.008Z,43.46
2018-05-27T14:27:47.296Z,43.20
2018-05-27T14:30:13.588Z,43.41
2018-05-27T14:32:39.907Z,42.93
2018-05-27T14:35:06.203Z,42.80
2018-05-27T14:37:32.496Z,42.99
2018-05-27T14:39:58.787Z,43.37
2018-05-27T14:42:25.081Z,42.79
2018-05-27T14:44:51.394Z,43.59
2018-05-27T14:47:17.671Z,44.12
2018-05-27T14:49:43.964Z,44.27
2018-05-27T14:52:10.261Z,44.47
2018-05-27T14:54:36.559Z,44.39
2018-05-27T14:57:02.853Z,44.13
2018-05-27T14:59:29.145Z,43.88
2018-05-27T15:01:55.442Z,43.29
2018-05-27T15:04:21.748Z,42.84
2018-05-27T15:06:48.042Z,42.60
2018-05-27T15:09:14.340Z,43.08
2018-05-27T15:11:40.635Z,43.03
2018-05-27T15:14:06.967Z,43.29
2018-05-27T15:16:33.256Z,43.74
2018-05-27T15:18:59.551Z,44.42
2018-05-27T15:21:25.883Z,45.12
2018-05-27T15:23:53.557Z,45.71
2018-05-27T15:26:20.041Z,45.43
2018-05-27T15:28:46.296Z,45.73
2018-05-27T15:31:12.588Z,46.07
2018-05-27T15:33:38.875Z,45.20
2018-05-27T15:36:05.177Z,44.50
2018-05-27T15:38:31.470Z,44.57
2018-05-27T15:40:57.792Z,44.93
2018-05-27T15:43:24.084Z,45.89
2018-05-27T15:45:50.377Z,46.60
2018-05-27T15:48:16.673Z,47.08
2018-05-27T15:50:42.961Z,47.90
2018-05-27T15:53:09.246Z,48.04
2018-05-27T15:55:35.540Z,49.04
2018-05-27T15:58:01.833Z,49.43
2018-05-27T16:00:28.129Z,49.82
2018-05-27T16:02:54.415Z,50.48
2018-05-27T16:05:20.760Z,50.72
2018-05-27T16:07:47.044Z,50.93
2018-05-27T16:10:13.345Z,50.68
2018-05-27T16:12:39.630Z,50.32
2018-05-27T16:15:05.941Z,50.15
2018-05-27T16:17:32.259Z,50.28
2018-05-27T16:19:58.560Z,50.64
2018-05-27T16:22:24.885Z,51.02
2018-05-27T16:24:51.219Z,51.50
2018-05-27T16:27:17.609Z,51.52
2018-05-27T16:29:43.859Z,51.29
2018-05-27T16:32:10.151Z,51.24
2018-05-27T16:34:36.472Z,51.36
2018-05-27T16:37:02.759Z,51.63
2018-05-27T16:39:29.051Z,51.89
2018-05-27T16:41:55.341Z,51.93
2018-05-27T16:44:21.639Z,51.99
2018-05-27T16:46:47.927Z,51.95
2018-05-27T16:49:14.225Z,52.27
2018-05-27T16:51:40.553Z,51.71
2018-05-27T16:54:06.841Z,52.07
2018-05-27T16:56:33.138Z,52.16
2018-05-27T16:58:59.438Z,52.25
2018-05-27T17:01:25.781Z,52.50
2018-05-27T17:03:52.036Z,52.55
2018-05-27T17:06:18.335Z,52.71
2018-05-27T17:08:44.627Z,53.30
2018-05-27T17:11:10.917Z,53.56
2018-05-27T17:13:37.217Z,53.79
2018-05-27T17:16:03.510Z,54.07
2018-05-27T17:18:29.797Z,54.28
2018-05-27T17:20:56.125Z,54.66
2018-05-27T17:23:22.397Z,54.73
2018-05-27T17:25:48.737Z,55.14
2018-05-27T17:28:15.080Z,55.65
2018-05-27T17:30:41.333Z,55.33
2018-05-27T17:33:07.667Z,55.05
2018-05-27T17:35:33.966Z,55.32
2018-05-27T17:38:00.258Z,55.27
2018-05-27T17:40:26.550Z,55.43
2018-05-27T17:42:52.850Z,55.48
2018-05-27T17:45:19.140Z,55.58
2018-05-27T17:47:45.479Z,55.79
2018-05-27T17:50:11.768Z,55.69
2018-05-27T17:52:38.061Z,56.04
2018-05-27T17:55:06.606Z,55.92
2018-05-27T17:57:32.991Z,56.41
2018-05-27T17:59:59.235Z,56.78
2018-05-27T18:02:25.534Z,56.92
2018-05-27T18:04:51.825Z,57.23
2018-05-27T18:07:18.119Z,57.54
2018-05-27T18:09:44.411Z,57.81
2018-05-27T18:12:10.705Z,58.07
2018-05-27T18:14:36.992Z,58.21
2018-05-27T18:17:03.331Z,58.23
2018-05-27T18:19:29.621Z,58.49
2018-05-27T18:21:55.911Z,58.74
2018-05-27T18:24:22.202Z,58.73
2018-05-27T18:26:48.502Z,59.23
2018-05-27T18:29:14.781Z,59.71
2018-05-27T18:31:41.083Z,59.60
2018-05-27T18:34:07.370Z,59.78
2018-05-27T18:36:33.660Z,59.89
2018-05-27T18:39:00.002Z,60.08
2018-05-27T18:41:26.296Z,60.70
2018-05-27T18:43:52.592Z,60.64
2018-05-27T18:46:18.928Z,61.34
2018-05-27T18:48:45.225Z,60.91
2018-05-27T18:51:11.560Z,60.86
2018-05-27T18:53:37.857Z,61.41
2018-05-27T18:56:04.201Z,61.49
2018-05-27T18:58:30.497Z,61.90
2018-05-27T19:00:56.833Z,62.08
2018-05-27T19:03:23.127Z,61.93
2018-05-27T19:05:49.483Z,62.20
2018-05-27T19:08:15.751Z,62.28
2018-05-27T19:10:42.038Z,62.56
2018-05-27T19:13:08.434Z,62.80
2018-05-27T19:15:34.718Z,63.48
2018-05-27T19:18:01.012Z,63.25
2018-05-27T19:20:27.301Z,63.52
2018-05-27T19:22:53.592Z,64.15
2018-05-27T19:25:19.881Z,64.64
2018-05-27T19:27:46.170Z,64.62
2018-05-27T19:30:12.499Z,64.81
2018-05-27T19:32:38.792Z,64.39
2018-05-27T19:35:05.075Z,64.54
2018-05-27T19:37:31.379Z,64.47
2018-05-27T19:39:57.677Z,64.58
2018-05-27T19:42:24.007Z,64.66
2018-05-27T19:44:50.266Z,64.95
2018-05-27T19:47:16.608Z,65.47
2018-05-27T19:49:42.896Z,65.70
2018-05-27T19:52:09.195Z,65.33
2018-05-27T19:54:35.506Z,65.54
2018-05-27T19:57:01.797Z,65.44
2018-05-27T19:59:28.090Z,65.59
2018-05-27T20:01:54.385Z,65.60
2018-05-27T20:04:20.703Z,65.72
2018-05-27T20:06:47.007Z,66.10
2018-05-27T20:09:13.300Z,66.04
2018-05-27T20:11:39.609Z,65.80
2018-05-27T20:14:05.906Z,66.31
2018-05-27T20:16:32.191Z,66.24
2018-05-27T20:18:58.492Z,66.37
2018-05-27T20:21:24.791Z,66.56
2018-05-27T20:23:51.079Z,66.66
2018-05-27T20:26:17.617Z,66.88
2018-05-27T20:28:44.105Z,66.26
2018-05-27T20:31:10.363Z,66.27
2018-05-27T20:33:36.663Z,66.17
2018-05-27T20:36:02.951Z,66.63
2018-05-27T20:38:29.239Z,66.54
2018-05-27T20:40:55.567Z,66.27
2018-05-27T20:43:21.869Z,66.34
2018-05-27T20:45:48.161Z,66.33
2018-05-27T20:48:14.463Z,66.88
2018-05-27T20:50:40.813Z,66.16
2018-05-27T20:53:07.116Z,66.29
2018-05-27T20:55:33.439Z,66.56
2018-05-27T20:57:59.735Z,66.85
2018-05-27T21:00:26.044Z,67.00
2018-05-27T21:02:52.343Z,66.64
2018-05-27T21:05:18.632Z,66.90
2018-05-27T21:07:44.925Z,67.44
2018-05-27T21:10:11.211Z,67.41
2018-05-27T21:12:37.511Z,67.67
2018-05-27T21:15:03.815Z,67.16
2018-05-27T21:17:30.111Z,67.76
2018-05-27T21:19:56.407Z,67.87
2018-05-27T21:22:22.883Z,68.36
2018-05-27T21:24:49.232Z,68.67
2018-05-27T21:27:15.536Z,69.01
2018-05-27T21:29:41.832Z,69.61
2018-05-27T21:32:08.147Z,69.33
2018-05-27T21:34:34.439Z,69.19
2018-05-27T21:37:00.774Z,69.24
2018-05-27T21:39:27.077Z,69.23
2018-05-27T21:41:53.370Z,69.66
2018-05-27T21:44:19.667Z,69.71
2018-05-27T21:46:45.961Z,70.14
2018-05-27T21:49:12.251Z,70.40
2018-05-27T21:51:38.547Z,70.85
2018-05-27T21:54:04.843Z,70.83
2018-05-27T21:56:31.133Z,70.36
2018-05-27T21:58:57.421Z,70.58
2018-05-27T22:01:23.717Z,70.74
2018-05-27T22:03:50.006Z,70.94
2018-05-27T22:06:16.331Z,71.08
2018-05-27T22:08:42.596Z,70.68
2018-05-27T22:11:08.892Z,70.68
2018-05-27T22:13:35.183Z,71.20
2018-05-27T22:16:01.478Z,71.45
2018-05-27T22:18:27.796Z,70.95
2018-05-27T22:20:54.084Z,71.19
2018-05-27T22:23:20.376Z,70.71
2018-05-27T22:25:46.663Z,70.59
2018-05-27T22:28:12.958Z,71.17
2018-05-27T22:30:39.254Z,71.26
2018-05-27T22:33:05.564Z,71.21
2018-05-27T22:35:31.856Z,71.55
2018-05-27T22:37:58.148Z,72.06
2018-05-27T22:40:24.444Z,71.72
2018-05-27T22:42:50.771Z,71.83
2018-05-27T22:45:17.068Z,71.91
2018-05-27T22:47:43.357Z,72.16
2018-05-27T22:50:09.647Z,71.85
2018-05-27T22:52:35.936Z,72.08
2018-05-27T22:55:02.268Z,71.91
2018-05-27T22:57:28.555Z,72.46
2018-05-27T22:59:54.851Z,73.30
2018-05-27T23:02:21.145Z,73.71
2018-05-27T23:04:47.437Z,74.05
2018-05-27T23:07:13.732Z,73.74
2018-05-27T23:09:40.056Z,73.83
2018-05-27T23:12:06.313Z,73.71
2018-05-27T23:14:32.607Z,73.37
2018-05-27T23:16:58.944Z,73.43
2018-05-27T23:19:26.307Z,73.35
2018-05-27T23:21:52.602Z,73.22
2018-05-27T23:24:18.910Z,73.62
2018-05-27T23:26:45.320Z,73.51
2018-05-27T23:29:11.617Z,73.99
2018-05-27T23:31:37.912Z,74.08
2018-05-27T23:34:04.239Z,73.97
2018-05-27T23:36:30.531Z,74.16
2018-05-27T23:38:56.828Z,74.37
2018-05-27T23:41:23.125Z,74.64
2018-05-27T23:43:49.420Z,74.71
2018-05-27T23:46:15.717Z,74.83
2018-05-27T23:48:42.011Z,74.71
2018-05-27T23:51:08.305Z,74.94
2018-05-27T23:53:34.595Z,74.97
2018-05-27T23:56:00.938Z,75.23
2018-05-27T23:58:27.227Z,75.11
